sensor_id;sensor_type;location;lat;lon;timestamp;P1;durP1;ratioP1;P2;durP2;ratioP2
68579;SDS011;55555;52.136;5.424;2022-10-16T00:01:39;6.05;;;2.45;;
68579;SDS011;55555;52.136;5.424;2022-10-16T00:04:06;11.82;;;2.90;;
68579;SDS011;55555;52.136;5.424;2022-10-16T00:06:33;13.27;;;2.90;;
68579;SDS011;55555;52.136;5.424;2022-10-16T00:09:00;8.30;;;2.53;;
68579;SDS011;55555;52.136;5.424;2022-10-16T00:11:28;8.70;;;2.40;;
68579;SDS011;55555;52.136;5.424;2022-10-16T00:14:03;6.97;;;2.72;;
68579;SDS011;55555;52.136;5.424;2022-10-16T00:16:34;7.88;;;2.72;;
68579;SDS011;55555;52.136;5.424;2022-10-16T00:19:02;12.33;;;2.87;;
68579;SDS011;55555;52.136;5.424;2022-10-16T00:21:29;10.90;;;2.80;;
68579;SDS011;55555;52.136;5.424;2022-10-16T00:23:58;6.70;;;2.75;;
68579;SDS011;55555;52.136;5.424;2022-10-16T00:26:36;8.20;;;2.80;;
68579;SDS011;55555;52.136;5.424;2022-10-16T00:29:04;7.53;;;2.65;;
68579;SDS011;55555;52.136;5.424;2022-10-16T00:31:32;10.50;;;2.53;;
68579;SDS011;55555;52.136;5.424;2022-10-16T00:34:00;6.60;;;2.70;;
68579;SDS011;55555;52.136;5.424;2022-10-16T00:36:27;8.40;;;2.35;;
68579;SDS011;55555;52.136;5.424;2022-10-16T00:38:55;11.57;;;3.08;;
68579;SDS011;55555;52.136;5.424;2022-10-16T00:41:26;7.75;;;3.03;;
68579;SDS011;55555;52.136;5.424;2022-10-16T00:43:55;9.53;;;3.13;;
68579;SDS011;55555;52.136;5.424;2022-10-16T00:46:26;6.40;;;2.90;;
68579;SDS011;55555;52.136;5.424;2022-10-16T00:49:03;9.70;;;3.13;;
68579;SDS011;55555;52.136;5.424;2022-10-16T00:51:34;12.07;;;3.03;;
68579;SDS011;55555;52.136;5.424;2022-10-16T00:54:06;8.02;;;2.95;;
68579;SDS011;55555;52.136;5.424;2022-10-16T00:56:41;9.40;;;2.90;;
68579;SDS011;55555;52.136;5.424;2022-10-16T00:59:20;10.55;;;3.17;;
68579;SDS011;55555;52.136;5.424;2022-10-16T01:01:55;11.40;;;3.47;;
68579;SDS011;55555;52.136;5.424;2022-10-16T01:04:24;10.00;;;4.00;;
68579;SDS011;55555;52.136;5.424;2022-10-16T01:06:56;8.75;;;3.67;;
68579;SDS011;55555;52.136;5.424;2022-10-16T01:09:40;9.07;;;3.40;;
68579;SDS011;55555;52.136;5.424;2022-10-16T01:15:07;10.98;;;4.03;;
68579;SDS011;55555;52.136;5.424;2022-10-16T01:17:59;9.43;;;3.80;;
68579;SDS011;55555;52.136;5.424;2022-10-16T01:20:36;12.45;;;4.93;;
68579;SDS011;55555;52.136;5.424;2022-10-16T01:23:23;12.80;;;4.30;;
68579;SDS011;55555;52.136;5.424;2022-10-16T01:29:18;12.68;;;4.85;;
68579;SDS011;55555;52.136;5.424;2022-10-16T01:31:56;11.07;;;4.50;;
68579;SDS011;55555;52.136;5.424;2022-10-16T01:34:35;10.05;;;4.60;;
68579;SDS011;55555;52.136;5.424;2022-10-16T01:37:22;13.97;;;4.83;;
68579;SDS011;55555;52.136;5.424;2022-10-16T01:40:17;10.18;;;4.13;;
68579;SDS011;55555;52.136;5.424;2022-10-16T01:42:47;11.45;;;4.85;;
68579;SDS011;55555;52.136;5.424;2022-10-16T01:45:19;10.88;;;4.65;;
68579;SDS011;55555;52.136;5.424;2022-10-16T01:47:47;9.98;;;4.22;;
68579;SDS011;55555;52.136;5.424;2022-10-16T01:50:16;8.83;;;4.47;;
68579;SDS011;55555;52.136;5.424;2022-10-16T01:52:48;10.05;;;4.30;;
68579;SDS011;55555;52.136;5.424;2022-10-16T01:55:21;9.10;;;4.70;;
68579;SDS011;55555;52.136;5.424;2022-10-16T01:57:54;10.05;;;4.20;;
68579;SDS011;55555;52.136;5.424;2022-10-16T02:00:21;12.15;;;4.82;;
68579;SDS011;55555;52.136;5.424;2022-10-16T02:02:51;11.77;;;4.37;;
68579;SDS011;55555;52.136;5.424;2022-10-16T02:05:26;11.18;;;4.05;;
68579;SDS011;55555;52.136;5.424;2022-10-16T02:08:03;9.23;;;3.85;;
68579;SDS011;55555;52.136;5.424;2022-10-16T02:10:31;10.80;;;4.32;;
68579;SDS011;55555;52.136;5.424;2022-10-16T02:13:06;9.55;;;4.00;;
68579;SDS011;55555;52.136;5.424;2022-10-16T02:15:43;8.43;;;3.50;;
68579;SDS011;55555;52.136;5.424;2022-10-16T02:18:10;7.70;;;3.40;;
68579;SDS011;55555;52.136;5.424;2022-10-16T02:20:59;11.02;;;4.00;;
68579;SDS011;55555;52.136;5.424;2022-10-16T02:23:48;8.95;;;3.78;;
68579;SDS011;55555;52.136;5.424;2022-10-16T02:26:39;8.93;;;3.53;;
68579;SDS011;55555;52.136;5.424;2022-10-16T02:29:17;10.17;;;3.80;;
68579;SDS011;55555;52.136;5.424;2022-10-16T02:31:51;14.32;;;3.92;;
68579;SDS011;55555;52.136;5.424;2022-10-16T02:34:24;8.93;;;3.63;;
68579;SDS011;55555;52.136;5.424;2022-10-16T02:36:54;7.53;;;3.40;;
68579;SDS011;55555;52.136;5.424;2022-10-16T02:39:24;10.82;;;3.40;;
68579;SDS011;55555;52.136;5.424;2022-10-16T02:41:53;10.70;;;3.20;;
68579;SDS011;55555;52.136;5.424;2022-10-16T02:44:21;7.78;;;3.47;;
68579;SDS011;55555;52.136;5.424;2022-10-16T02:46:47;10.70;;;3.30;;
68579;SDS011;55555;52.136;5.424;2022-10-16T02:49:14;13.25;;;3.72;;
68579;SDS011;55555;52.136;5.424;2022-10-16T02:51:41;11.75;;;3.65;;
68579;SDS011;55555;52.136;5.424;2022-10-16T02:54:08;6.57;;;3.23;;
68579;SDS011;55555;52.136;5.424;2022-10-16T02:56:35;8.55;;;3.58;;
68579;SDS011;55555;52.136;5.424;2022-10-16T02:59:02;8.75;;;3.53;;
68579;SDS011;55555;52.136;5.424;2022-10-16T03:01:29;7.00;;;3.33;;
68579;SDS011;55555;52.136;5.424;2022-10-16T03:03:56;8.75;;;4.20;;
68579;SDS011;55555;52.136;5.424;2022-10-16T03:06:23;9.30;;;3.83;;
68579;SDS011;55555;52.136;5.424;2022-10-16T03:08:50;9.60;;;4.13;;
68579;SDS011;55555;52.136;5.424;2022-10-16T03:11:17;8.45;;;3.75;;
68579;SDS011;55555;52.136;5.424;2022-10-16T03:13:44;8.07;;;3.38;;
68579;SDS011;55555;52.136;5.424;2022-10-16T03:16:10;8.80;;;3.85;;
68579;SDS011;55555;52.136;5.424;2022-10-16T03:18:37;9.83;;;3.57;;
68579;SDS011;55555;52.136;5.424;2022-10-16T03:21:04;7.95;;;3.42;;
68579;SDS011;55555;52.136;5.424;2022-10-16T03:23:31;10.10;;;4.13;;
68579;SDS011;55555;52.136;5.424;2022-10-16T03:25:58;8.13;;;3.88;;
68579;SDS011;55555;52.136;5.424;2022-10-16T03:28:25;10.27;;;3.83;;
68579;SDS011;55555;52.136;5.424;2022-10-16T03:30:52;8.87;;;3.73;;
68579;SDS011;55555;52.136;5.424;2022-10-16T03:33:19;9.00;;;3.33;;
68579;SDS011;55555;52.136;5.424;2022-10-16T03:35:50;9.13;;;3.65;;
68579;SDS011;55555;52.136;5.424;2022-10-16T03:38:19;7.32;;;3.63;;
68579;SDS011;55555;52.136;5.424;2022-10-16T03:40:46;7.20;;;3.38;;
68579;SDS011;55555;52.136;5.424;2022-10-16T03:43:14;6.33;;;3.10;;
68579;SDS011;55555;52.136;5.424;2022-10-16T03:45:46;9.05;;;4.13;;
68579;SDS011;55555;52.136;5.424;2022-10-16T03:48:12;8.07;;;3.60;;
68579;SDS011;55555;52.136;5.424;2022-10-16T03:50:39;9.45;;;3.72;;
68579;SDS011;55555;52.136;5.424;2022-10-16T03:53:06;8.57;;;4.32;;
68579;SDS011;55555;52.136;5.424;2022-10-16T03:55:34;10.00;;;3.83;;
68579;SDS011;55555;52.136;5.424;2022-10-16T03:58:01;10.38;;;4.20;;
68579;SDS011;55555;52.136;5.424;2022-10-16T04:00:28;10.68;;;3.95;;
68579;SDS011;55555;52.136;5.424;2022-10-16T04:02:55;11.15;;;4.57;;
68579;SDS011;55555;52.136;5.424;2022-10-16T04:05:22;7.50;;;3.38;;
68579;SDS011;55555;52.136;5.424;2022-10-16T04:07:49;8.97;;;3.73;;
68579;SDS011;55555;52.136;5.424;2022-10-16T04:10:16;9.50;;;3.72;;
68579;SDS011;55555;52.136;5.424;2022-10-16T04:12:43;9.30;;;3.90;;
68579;SDS011;55555;52.136;5.424;2022-10-16T04:15:10;7.63;;;3.60;;
68579;SDS011;55555;52.136;5.424;2022-10-16T04:17:37;9.85;;;4.05;;
68579;SDS011;55555;52.136;5.424;2022-10-16T04:20:04;7.63;;;3.27;;
68579;SDS011;55555;52.136;5.424;2022-10-16T04:22:31;7.43;;;3.53;;
68579;SDS011;55555;52.136;5.424;2022-10-16T04:24:58;9.10;;;3.40;;
68579;SDS011;55555;52.136;5.424;2022-10-16T04:27:25;8.80;;;3.22;;
68579;SDS011;55555;52.136;5.424;2022-10-16T04:29:53;7.82;;;2.97;;
68579;SDS011;55555;52.136;5.424;2022-10-16T04:32:19;8.43;;;3.10;;
68579;SDS011;55555;52.136;5.424;2022-10-16T04:34:47;7.72;;;3.38;;
68579;SDS011;55555;52.136;5.424;2022-10-16T04:37:13;10.15;;;3.25;;
68579;SDS011;55555;52.136;5.424;2022-10-16T04:39:40;7.15;;;3.13;;
68579;SDS011;55555;52.136;5.424;2022-10-16T04:42:07;7.22;;;2.92;;
68579;SDS011;55555;52.136;5.424;2022-10-16T04:44:34;9.37;;;3.00;;
68579;SDS011;55555;52.136;5.424;2022-10-16T04:47:01;6.50;;;3.00;;
68579;SDS011;55555;52.136;5.424;2022-10-16T04:49:28;7.75;;;2.90;;
68579;SDS011;55555;52.136;5.424;2022-10-16T04:51:55;6.43;;;2.85;;
68579;SDS011;55555;52.136;5.424;2022-10-16T04:54:22;8.98;;;2.95;;
68579;SDS011;55555;52.136;5.424;2022-10-16T04:56:49;8.90;;;2.90;;
68579;SDS011;55555;52.136;5.424;2022-10-16T04:59:18;6.70;;;2.67;;
68579;SDS011;55555;52.136;5.424;2022-10-16T05:01:46;5.30;;;2.60;;
68579;SDS011;55555;52.136;5.424;2022-10-16T05:04:13;9.43;;;2.83;;
68579;SDS011;55555;52.136;5.424;2022-10-16T05:06:41;8.45;;;2.72;;
68579;SDS011;55555;52.136;5.424;2022-10-16T05:09:08;9.60;;;2.37;;
68579;SDS011;55555;52.136;5.424;2022-10-16T05:11:36;6.85;;;2.92;;
68579;SDS011;55555;52.136;5.424;2022-10-16T05:14:03;11.02;;;3.00;;
68579;SDS011;55555;52.136;5.424;2022-10-16T05:16:30;8.88;;;2.88;;
68579;SDS011;55555;52.136;5.424;2022-10-16T05:18:57;10.95;;;3.28;;
68579;SDS011;55555;52.136;5.424;2022-10-16T05:21:44;7.40;;;2.97;;
68579;SDS011;55555;52.136;5.424;2022-10-16T05:24:11;7.68;;;2.95;;
68579;SDS011;55555;52.136;5.424;2022-10-16T05:26:38;6.55;;;2.88;;
68579;SDS011;55555;52.136;5.424;2022-10-16T05:29:05;6.53;;;2.60;;
68579;SDS011;55555;52.136;5.424;2022-10-16T05:31:32;7.95;;;3.10;;
68579;SDS011;55555;52.136;5.424;2022-10-16T05:33:59;7.90;;;3.00;;
68579;SDS011;55555;52.136;5.424;2022-10-16T05:36:27;7.53;;;2.80;;
68579;SDS011;55555;52.136;5.424;2022-10-16T05:38:54;7.82;;;2.92;;
68579;SDS011;55555;52.136;5.424;2022-10-16T05:41:21;6.57;;;2.67;;
68579;SDS011;55555;52.136;5.424;2022-10-16T05:43:51;7.30;;;2.75;;
68579;SDS011;55555;52.136;5.424;2022-10-16T05:46:19;8.10;;;3.20;;
68579;SDS011;55555;52.136;5.424;2022-10-16T05:48:46;9.70;;;3.15;;
68579;SDS011;55555;52.136;5.424;2022-10-16T05:51:13;7.97;;;3.00;;
68579;SDS011;55555;52.136;5.424;2022-10-16T05:53:41;8.05;;;3.00;;
68579;SDS011;55555;52.136;5.424;2022-10-16T05:56:10;9.60;;;3.05;;
68579;SDS011;55555;52.136;5.424;2022-10-16T05:58:38;7.77;;;2.73;;
68579;SDS011;55555;52.136;5.424;2022-10-16T06:01:16;7.50;;;3.40;;
68579;SDS011;55555;52.136;5.424;2022-10-16T06:03:45;8.88;;;3.53;;
68579;SDS011;55555;52.136;5.424;2022-10-16T06:06:12;7.78;;;2.83;;
68579;SDS011;55555;52.136;5.424;2022-10-16T06:08:42;8.70;;;3.35;;
68579;SDS011;55555;52.136;5.424;2022-10-16T06:11:18;9.43;;;2.87;;
68579;SDS011;55555;52.136;5.424;2022-10-16T06:13:55;8.05;;;3.72;;
68579;SDS011;55555;52.136;5.424;2022-10-16T06:16:24;8.02;;;3.33;;
68579;SDS011;55555;52.136;5.424;2022-10-16T06:18:53;8.18;;;3.50;;
68579;SDS011;55555;52.136;5.424;2022-10-16T06:21:23;7.30;;;2.80;;
68579;SDS011;55555;52.136;5.424;2022-10-16T06:23:52;9.37;;;2.77;;
68579;SDS011;55555;52.136;5.424;2022-10-16T06:26:21;6.03;;;2.80;;
68579;SDS011;55555;52.136;5.424;2022-10-16T06:28:54;8.20;;;3.33;;
68579;SDS011;55555;52.136;5.424;2022-10-16T06:31:23;7.68;;;3.58;;
68579;SDS011;55555;52.136;5.424;2022-10-16T06:33:53;11.77;;;3.72;;
68579;SDS011;55555;52.136;5.424;2022-10-16T06:36:22;6.47;;;3.00;;
68579;SDS011;55555;52.136;5.424;2022-10-16T06:38:50;7.15;;;2.90;;
68579;SDS011;55555;52.136;5.424;2022-10-16T06:41:18;9.23;;;3.53;;
68579;SDS011;55555;52.136;5.424;2022-10-16T06:43:48;9.05;;;3.30;;
68579;SDS011;55555;52.136;5.424;2022-10-16T06:46:16;10.02;;;3.67;;
68579;SDS011;55555;52.136;5.424;2022-10-16T06:48:45;8.63;;;3.43;;
68579;SDS011;55555;52.136;5.424;2022-10-16T06:51:14;8.48;;;3.10;;
68579;SDS011;55555;52.136;5.424;2022-10-16T06:53:47;8.35;;;3.42;;
68579;SDS011;55555;52.136;5.424;2022-10-16T06:56:29;8.45;;;3.33;;
68579;SDS011;55555;52.136;5.424;2022-10-16T06:58:58;10.30;;;3.50;;
68579;SDS011;55555;52.136;5.424;2022-10-16T07:01:26;6.17;;;3.17;;
68579;SDS011;55555;52.136;5.424;2022-10-16T07:03:54;7.47;;;3.00;;
68579;SDS011;55555;52.136;5.424;2022-10-16T07:06:22;8.45;;;3.42;;
68579;SDS011;55555;52.136;5.424;2022-10-16T07:08:50;9.00;;;3.45;;
68579;SDS011;55555;52.136;5.424;2022-10-16T07:11:19;7.93;;;2.97;;
68579;SDS011;55555;52.136;5.424;2022-10-16T07:13:48;8.47;;;2.93;;
68579;SDS011;55555;52.136;5.424;2022-10-16T07:16:22;7.60;;;3.17;;
68579;SDS011;55555;52.136;5.424;2022-10-16T07:18:53;7.82;;;2.60;;
68579;SDS011;55555;52.136;5.424;2022-10-16T07:21:27;9.55;;;2.70;;
68579;SDS011;55555;52.136;5.424;2022-10-16T07:23:58;8.10;;;3.17;;
68579;SDS011;55555;52.136;5.424;2022-10-16T07:26:30;7.63;;;2.60;;
68579;SDS011;55555;52.136;5.424;2022-10-16T07:29:00;8.35;;;3.45;;
68579;SDS011;55555;52.136;5.424;2022-10-16T07:31:27;8.23;;;3.10;;
68579;SDS011;55555;52.136;5.424;2022-10-16T07:33:54;7.43;;;2.80;;
68579;SDS011;55555;52.136;5.424;2022-10-16T07:36:21;5.30;;;2.03;;
68579;SDS011;55555;52.136;5.424;2022-10-16T07:38:48;7.90;;;2.17;;
68579;SDS011;55555;52.136;5.424;2022-10-16T07:41:20;9.48;;;2.53;;
68579;SDS011;55555;52.136;5.424;2022-10-16T07:43:53;6.95;;;2.22;;
68579;SDS011;55555;52.136;5.424;2022-10-16T07:46:21;6.40;;;2.47;;
68579;SDS011;55555;52.136;5.424;2022-10-16T07:48:49;6.25;;;2.58;;
68579;SDS011;55555;52.136;5.424;2022-10-16T07:51:17;9.23;;;2.47;;
68579;SDS011;55555;52.136;5.424;2022-10-16T07:53:46;6.60;;;2.20;;
68579;SDS011;55555;52.136;5.424;2022-10-16T07:56:14;6.85;;;2.50;;
68579;SDS011;55555;52.136;5.424;2022-10-16T07:58:43;8.27;;;2.60;;
68579;SDS011;55555;52.136;5.424;2022-10-16T08:01:11;9.20;;;3.30;;
68579;SDS011;55555;52.136;5.424;2022-10-16T08:03:44;10.73;;;2.80;;
68579;SDS011;55555;52.136;5.424;2022-10-16T08:06:12;8.77;;;3.22;;
68579;SDS011;55555;52.136;5.424;2022-10-16T08:08:39;9.10;;;3.00;;
68579;SDS011;55555;52.136;5.424;2022-10-16T08:11:07;7.55;;;2.95;;
68579;SDS011;55555;52.136;5.424;2022-10-16T08:13:34;7.15;;;3.38;;
68579;SDS011;55555;52.136;5.424;2022-10-16T08:16:02;8.53;;;3.10;;
68579;SDS011;55555;52.136;5.424;2022-10-16T08:18:34;9.52;;;3.25;;
68579;SDS011;55555;52.136;5.424;2022-10-16T08:21:03;12.45;;;3.20;;
68579;SDS011;55555;52.136;5.424;2022-10-16T08:23:32;10.68;;;2.80;;
68579;SDS011;55555;52.136;5.424;2022-10-16T08:26:02;8.10;;;2.67;;
68579;SDS011;55555;52.136;5.424;2022-10-16T08:28:32;8.97;;;2.60;;
68579;SDS011;55555;52.136;5.424;2022-10-16T08:31:33;7.05;;;2.40;;
68579;SDS011;55555;52.136;5.424;2022-10-16T08:33:53;10.35;;;2.92;;
68579;SDS011;55555;52.136;5.424;2022-10-16T08:36:20;11.25;;;3.00;;
68579;SDS011;55555;52.136;5.424;2022-10-16T08:38:47;11.30;;;2.75;;
68579;SDS011;55555;52.136;5.424;2022-10-16T08:49:33;7.50;;;2.30;;
68579;SDS011;55555;52.136;5.424;2022-10-16T08:52:02;7.90;;;2.70;;
68579;SDS011;55555;52.136;5.424;2022-10-16T08:54:30;9.00;;;2.60;;
68579;SDS011;55555;52.136;5.424;2022-10-16T08:57:11;13.40;;;3.00;;
68579;SDS011;55555;52.136;5.424;2022-10-16T08:59:49;12.20;;;3.28;;
68579;SDS011;55555;52.136;5.424;2022-10-16T09:05:02;12.10;;;2.40;;
68579;SDS011;55555;52.136;5.424;2022-10-16T09:08:13;14.13;;;2.40;;
68579;SDS011;55555;52.136;5.424;2022-10-16T09:20:13;11.50;;;2.60;;
68579;SDS011;55555;52.136;5.424;2022-10-16T09:23:13;9.30;;;2.57;;
68579;SDS011;55555;52.136;5.424;2022-10-16T09:25:45;10.63;;;2.53;;
68579;SDS011;55555;52.136;5.424;2022-10-16T09:28:15;10.95;;;2.72;;
68579;SDS011;55555;52.136;5.424;2022-10-16T09:30:44;9.52;;;2.67;;
68579;SDS011;55555;52.136;5.424;2022-10-16T09:33:14;9.70;;;2.72;;
68579;SDS011;55555;52.136;5.424;2022-10-16T09:35:45;12.17;;;2.80;;
68579;SDS011;55555;52.136;5.424;2022-10-16T09:38:32;15.38;;;2.40;;
68579;SDS011;55555;52.136;5.424;2022-10-16T09:41:15;10.63;;;2.45;;
68579;SDS011;55555;52.136;5.424;2022-10-16T09:46:27;11.73;;;2.92;;
68579;SDS011;55555;52.136;5.424;2022-10-16T09:49:18;10.93;;;2.00;;
68579;SDS011;55555;52.136;5.424;2022-10-16T09:51:49;11.98;;;2.78;;
68579;SDS011;55555;52.136;5.424;2022-10-16T09:54:18;15.05;;;2.42;;
68579;SDS011;55555;52.136;5.424;2022-10-16T09:56:47;13.05;;;2.58;;
68579;SDS011;55555;52.136;5.424;2022-10-16T09:59:18;10.25;;;2.25;;
68579;SDS011;55555;52.136;5.424;2022-10-16T10:01:50;19.07;;;2.37;;
68579;SDS011;55555;52.136;5.424;2022-10-16T10:04:20;13.73;;;2.47;;
68579;SDS011;55555;52.136;5.424;2022-10-16T10:06:50;10.40;;;2.30;;
68579;SDS011;55555;52.136;5.424;2022-10-16T10:11:49;14.20;;;2.42;;
68579;SDS011;55555;52.136;5.424;2022-10-16T10:14:35;10.50;;;2.63;;
68579;SDS011;55555;52.136;5.424;2022-10-16T10:19:44;10.27;;;2.20;;
68579;SDS011;55555;52.136;5.424;2022-10-16T10:22:24;12.23;;;1.92;;
68579;SDS011;55555;52.136;5.424;2022-10-16T10:30:40;10.32;;;2.38;;
68579;SDS011;55555;52.136;5.424;2022-10-16T10:33:54;11.60;;;2.20;;
68579;SDS011;55555;52.136;5.424;2022-10-16T10:36:53;9.52;;;2.55;;
68579;SDS011;55555;52.136;5.424;2022-10-16T10:40:13;15.98;;;3.72;;
68579;SDS011;55555;52.136;5.424;2022-10-16T10:46:06;13.48;;;2.40;;
68579;SDS011;55555;52.136;5.424;2022-10-16T10:52:02;11.82;;;2.40;;
68579;SDS011;55555;52.136;5.424;2022-10-16T10:57:52;14.27;;;2.60;;
68579;SDS011;55555;52.136;5.424;2022-10-16T11:00:54;11.98;;;2.20;;
68579;SDS011;55555;52.136;5.424;2022-10-16T11:09:38;10.98;;;2.92;;
68579;SDS011;55555;52.136;5.424;2022-10-16T11:12:15;13.73;;;2.50;;
68579;SDS011;55555;52.136;5.424;2022-10-16T11:17:48;11.50;;;2.85;;
68579;SDS011;55555;52.136;5.424;2022-10-16T11:22:56;12.77;;;2.28;;
68579;SDS011;55555;52.136;5.424;2022-10-16T11:25:37;11.70;;;2.60;;
68579;SDS011;55555;52.136;5.424;2022-10-16T11:28:08;10.55;;;2.63;;
68579;SDS011;55555;52.136;5.424;2022-10-16T11:31:07;11.55;;;2.80;;
68579;SDS011;55555;52.136;5.424;2022-10-16T11:33:51;14.13;;;2.63;;
68579;SDS011;55555;52.136;5.424;2022-10-16T11:36:36;14.13;;;2.78;;
68579;SDS011;55555;52.136;5.424;2022-10-16T11:39:26;12.53;;;2.50;;
68579;SDS011;55555;52.136;5.424;2022-10-16T11:48:07;9.95;;;2.60;;
68579;SDS011;55555;52.136;5.424;2022-10-16T11:50:57;12.77;;;2.53;;
68579;SDS011;55555;52.136;5.424;2022-10-16T11:54:00;12.20;;;2.33;;
68579;SDS011;55555;52.136;5.424;2022-10-16T11:56:41;12.55;;;3.00;;
68579;SDS011;55555;52.136;5.424;2022-10-16T12:02:53;10.30;;;2.95;;
68579;SDS011;55555;52.136;5.424;2022-10-16T12:08:23;10.50;;;2.03;;
68579;SDS011;55555;52.136;5.424;2022-10-16T12:10:50;11.55;;;2.38;;
68579;SDS011;55555;52.136;5.424;2022-10-16T12:13:34;10.68;;;2.70;;
68579;SDS011;55555;52.136;5.424;2022-10-16T12:18:39;13.65;;;2.50;;
68579;SDS011;55555;52.136;5.424;2022-10-16T12:21:11;8.20;;;2.10;;
68579;SDS011;55555;52.136;5.424;2022-10-16T12:23:51;11.98;;;3.13;;
68579;SDS011;55555;52.136;5.424;2022-10-16T12:26:27;11.85;;;2.80;;
68579;SDS011;55555;52.136;5.424;2022-10-16T12:32:00;9.30;;;2.63;;
68579;SDS011;55555;52.136;5.424;2022-10-16T12:40:14;9.25;;;2.53;;
68579;SDS011;55555;52.136;5.424;2022-10-16T12:42:54;10.10;;;3.08;;
68579;SDS011;55555;52.136;5.424;2022-10-16T12:48:00;9.47;;;1.93;;
68579;SDS011;55555;52.136;5.424;2022-10-16T12:50:43;11.60;;;2.78;;
68579;SDS011;55555;52.136;5.424;2022-10-16T12:53:20;13.68;;;3.10;;
68579;SDS011;55555;52.136;5.424;2022-10-16T12:55:52;9.55;;;2.38;;
68579;SDS011;55555;52.136;5.424;2022-10-16T12:58:38;10.57;;;2.55;;
68579;SDS011;55555;52.136;5.424;2022-10-16T13:04:17;15.10;;;2.92;;
68579;SDS011;55555;52.136;5.424;2022-10-16T13:16:15;15.50;;;2.90;;
68579;SDS011;55555;52.136;5.424;2022-10-16T13:25:13;26.13;;;9.20;;
68579;SDS011;55555;52.136;5.424;2022-10-16T13:28:02;17.73;;;4.72;;
68579;SDS011;55555;52.136;5.424;2022-10-16T13:30:35;21.03;;;6.40;;
68579;SDS011;55555;52.136;5.424;2022-10-16T13:35:54;14.50;;;3.28;;
68579;SDS011;55555;52.136;5.424;2022-10-16T13:38:24;14.18;;;2.78;;
68579;SDS011;55555;52.136;5.424;2022-10-16T13:43:29;11.63;;;2.67;;
68579;SDS011;55555;52.136;5.424;2022-10-16T13:46:15;14.10;;;2.25;;
68579;SDS011;55555;52.136;5.424;2022-10-16T13:48:45;13.07;;;2.53;;
68579;SDS011;55555;52.136;5.424;2022-10-16T13:51:30;10.68;;;2.53;;
68579;SDS011;55555;52.136;5.424;2022-10-16T13:53:58;12.07;;;2.20;;
68579;SDS011;55555;52.136;5.424;2022-10-16T13:56:26;12.70;;;2.10;;
68579;SDS011;55555;52.136;5.424;2022-10-16T13:59:04;12.27;;;2.55;;
68579;SDS011;55555;52.136;5.424;2022-10-16T14:01:34;14.68;;;3.00;;
68579;SDS011;55555;52.136;5.424;2022-10-16T14:04:08;14.63;;;3.33;;
68579;SDS011;55555;52.136;5.424;2022-10-16T14:06:40;11.13;;;2.35;;
68579;SDS011;55555;52.136;5.424;2022-10-16T14:09:17;11.30;;;2.13;;
68579;SDS011;55555;52.136;5.424;2022-10-16T14:11:53;11.52;;;1.40;;
68579;SDS011;55555;52.136;5.424;2022-10-16T14:14:34;11.10;;;2.28;;
68579;SDS011;55555;52.136;5.424;2022-10-16T14:17:13;11.45;;;2.80;;
68579;SDS011;55555;52.136;5.424;2022-10-16T14:20:03;11.30;;;2.63;;
68579;SDS011;55555;52.136;5.424;2022-10-16T14:22:36;13.03;;;2.20;;
68579;SDS011;55555;52.136;5.424;2022-10-16T14:28:03;10.52;;;2.65;;
68579;SDS011;55555;52.136;5.424;2022-10-16T14:30:58;9.20;;;2.03;;
68579;SDS011;55555;52.136;5.424;2022-10-16T14:36:01;12.33;;;2.20;;
68579;SDS011;55555;52.136;5.424;2022-10-16T14:38:39;12.50;;;2.22;;
68579;SDS011;55555;52.136;5.424;2022-10-16T14:41:20;10.55;;;2.08;;
68579;SDS011;55555;52.136;5.424;2022-10-16T14:43:55;13.02;;;2.13;;
68579;SDS011;55555;52.136;5.424;2022-10-16T14:46:32;13.15;;;2.80;;
68579;SDS011;55555;52.136;5.424;2022-10-16T14:51:39;12.18;;;2.53;;
68579;SDS011;55555;52.136;5.424;2022-10-16T14:54:08;14.85;;;2.35;;
68579;SDS011;55555;52.136;5.424;2022-10-16T14:56:42;13.10;;;2.33;;
68579;SDS011;55555;52.136;5.424;2022-10-16T14:59:14;14.90;;;2.97;;
68579;SDS011;55555;52.136;5.424;2022-10-16T15:01:51;13.63;;;3.37;;
68579;SDS011;55555;52.136;5.424;2022-10-16T15:04:18;15.13;;;2.83;;
68579;SDS011;55555;52.136;5.424;2022-10-16T15:06:45;13.60;;;3.70;;
68579;SDS011;55555;52.136;5.424;2022-10-16T15:09:12;12.85;;;3.20;;
68579;SDS011;55555;52.136;5.424;2022-10-16T15:11:40;12.95;;;3.58;;
68579;SDS011;55555;52.136;5.424;2022-10-16T15:14:11;12.63;;;2.93;;
68579;SDS011;55555;52.136;5.424;2022-10-16T15:16:40;11.80;;;3.05;;
68579;SDS011;55555;52.136;5.424;2022-10-16T15:19:07;18.48;;;3.08;;
68579;SDS011;55555;52.136;5.424;2022-10-16T15:21:34;16.85;;;2.20;;
68579;SDS011;55555;52.136;5.424;2022-10-16T15:24:01;11.93;;;2.70;;
68579;SDS011;55555;52.136;5.424;2022-10-16T15:26:29;12.60;;;1.77;;
68579;SDS011;55555;52.136;5.424;2022-10-16T15:28:56;12.75;;;2.53;;
68579;SDS011;55555;52.136;5.424;2022-10-16T15:31:24;13.10;;;3.20;;
68579;SDS011;55555;52.136;5.424;2022-10-16T15:33:51;17.23;;;3.63;;
68579;SDS011;55555;52.136;5.424;2022-10-16T15:36:24;15.50;;;3.33;;
68579;SDS011;55555;52.136;5.424;2022-10-16T15:38:55;12.57;;;2.80;;
68579;SDS011;55555;52.136;5.424;2022-10-16T15:41:23;13.35;;;3.05;;
68579;SDS011;55555;52.136;5.424;2022-10-16T15:43:50;12.63;;;2.90;;
68579;SDS011;55555;52.136;5.424;2022-10-16T15:46:18;12.68;;;2.38;;
68579;SDS011;55555;52.136;5.424;2022-10-16T15:48:48;12.05;;;2.92;;
68579;SDS011;55555;52.136;5.424;2022-10-16T15:51:16;9.27;;;2.97;;
68579;SDS011;55555;52.136;5.424;2022-10-16T15:53:44;12.45;;;2.95;;
68579;SDS011;55555;52.136;5.424;2022-10-16T15:56:12;19.13;;;5.00;;
68579;SDS011;55555;52.136;5.424;2022-10-16T15:58:40;17.42;;;4.13;;
68579;SDS011;55555;52.136;5.424;2022-10-16T16:01:07;15.98;;;5.75;;
68579;SDS011;55555;52.136;5.424;2022-10-16T16:03:37;20.53;;;6.83;;
68579;SDS011;55555;52.136;5.424;2022-10-16T16:06:09;17.88;;;6.88;;
68579;SDS011;55555;52.136;5.424;2022-10-16T16:08:38;18.35;;;6.57;;
68579;SDS011;55555;52.136;5.424;2022-10-16T16:11:06;16.55;;;5.25;;
68579;SDS011;55555;52.136;5.424;2022-10-16T16:13:37;18.48;;;6.00;;
68579;SDS011;55555;52.136;5.424;2022-10-16T16:16:05;15.23;;;6.00;;
68579;SDS011;55555;52.136;5.424;2022-10-16T16:18:34;18.45;;;5.60;;
68579;SDS011;55555;52.136;5.424;2022-10-16T16:21:02;14.95;;;4.90;;
68579;SDS011;55555;52.136;5.424;2022-10-16T16:23:30;16.00;;;4.85;;
68579;SDS011;55555;52.136;5.424;2022-10-16T16:28:46;18.47;;;4.60;;
68579;SDS011;55555;52.136;5.424;2022-10-16T16:31:13;17.20;;;5.60;;
68579;SDS011;55555;52.136;5.424;2022-10-16T16:33:40;16.30;;;5.82;;
68579;SDS011;55555;52.136;5.424;2022-10-16T16:36:07;16.10;;;5.55;;
68579;SDS011;55555;52.136;5.424;2022-10-16T16:38:40;18.10;;;5.65;;
68579;SDS011;55555;52.136;5.424;2022-10-16T16:41:11;15.30;;;6.07;;
68579;SDS011;55555;52.136;5.424;2022-10-16T16:43:43;15.90;;;6.43;;
68579;SDS011;55555;52.136;5.424;2022-10-16T16:46:10;18.80;;;7.70;;
68579;SDS011;55555;52.136;5.424;2022-10-16T16:48:38;19.95;;;8.15;;
68579;SDS011;55555;52.136;5.424;2022-10-16T16:51:06;21.52;;;7.65;;
68579;SDS011;55555;52.136;5.424;2022-10-16T16:53:42;18.07;;;7.37;;
68579;SDS011;55555;52.136;5.424;2022-10-16T16:56:11;24.77;;;8.23;;
68579;SDS011;55555;52.136;5.424;2022-10-16T16:58:38;19.73;;;8.15;;
68579;SDS011;55555;52.136;5.424;2022-10-16T17:01:06;24.63;;;8.45;;
68579;SDS011;55555;52.136;5.424;2022-10-16T17:03:45;22.02;;;8.13;;
68579;SDS011;55555;52.136;5.424;2022-10-16T17:06:16;18.77;;;8.13;;
68579;SDS011;55555;52.136;5.424;2022-10-16T17:08:46;21.85;;;8.98;;
68579;SDS011;55555;52.136;5.424;2022-10-16T17:11:15;19.80;;;8.45;;
68579;SDS011;55555;52.136;5.424;2022-10-16T17:13:46;22.40;;;9.55;;